Time;durP1;ratioP1;P1;durP2;ratioP2;P2;SDS_P1;SDS_P2;PMS_P1;PMS_P2;Temp;Humidity;BMP_temperature;BMP_pressure;BME280_temperature;BME280_humidity;BME280_pressure;Samples;Min_cycle;Max_cycle;Signal;HPM_P1;HPM_P2
2021/11/23 00:01:02;;;;;;;15.40;7.68;;;15.40;41.80;;;;;;5056893;28;20059;-53
2021/11/23 00:03:28;;;;;;;9.10;6.85;;;15.40;41.80;;;;;;5039055;28;20427;-53
2021/11/23 00:05:54;;;;;;;12.75;7.20;;;15.40;41.80;;;;;;5039094;28;20052;-54
2021/11/23 00:08:20;;;;;;;10.18;7.35;;;15.40;41.80;;;;;;5039900;28;20025;-55
2021/11/23 00:10:46;;;;;;;11.90;7.63;;;15.40;41.90;;;;;;5056505;28;20073;-55
2021/11/23 00:13:12;;;;;;;12.93;7.18;;;15.40;41.90;;;;;;5039985;28;20381;-54
2021/11/23 00:15:38;;;;;;;13.35;7.40;;;15.40;42.00;;;;;;5056990;28;20025;-56
2021/11/23 00:18:05;;;;;;;12.15;6.95;;;15.30;42.00;;;;;;5038417;28;20030;-54
2021/11/23 00:20:32;;;;;;;11.40;6.80;;;15.30;42.00;;;;;;5057011;28;20029;-54
2021/11/23 00:22:58;;;;;;;12.05;7.57;;;15.40;42.10;;;;;;5040683;28;20025;-55
2021/11/23 00:25:25;;;;;;;12.73;7.18;;;15.30;42.00;;;;;;5023774;28;20036;-50
2021/11/23 00:27:51;;;;;;;10.48;7.20;;;15.30;42.10;;;;;;5057342;28;20017;-53
2021/11/23 00:30:17;;;;;;;9.65;6.15;;;15.30;42.10;;;;;;5038203;28;20021;-52
2021/11/23 00:32:44;;;;;;;10.15;6.63;;;15.30;42.20;;;;;;5057216;28;20044;-54
2021/11/23 00:35:10;;;;;;;12.48;7.22;;;15.30;42.20;;;;;;5053883;28;20021;-53
2021/11/23 00:37:36;;;;;;;9.80;6.50;;;15.30;42.30;;;;;;5054462;28;20053;-53
2021/11/23 00:40:03;;;;;;;12.88;6.80;;;15.30;42.30;;;;;;5037850;28;20017;-53
2021/11/23 00:42:28;;;;;;;8.73;6.38;;;15.30;42.30;;;;;;5054904;28;20075;-54
2021/11/23 00:44:56;;;;;;;10.85;6.65;;;15.30;42.30;;;;;;5054946;28;20478;-52
2021/11/23 00:47:22;;;;;;;8.13;5.60;;;15.30;42.30;;;;;;5055925;28;20059;-56
2021/11/23 00:49:48;;;;;;;10.98;6.97;;;15.20;42.30;;;;;;5058053;28;20072;-52
2021/11/23 00:52:15;;;;;;;13.02;6.68;;;15.20;42.30;;;;;;5057912;28;20020;-55
2021/11/23 00:54:41;;;;;;;11.77;6.80;;;15.20;42.30;;;;;;5040812;28;20025;-54
2021/11/23 00:57:07;;;;;;;10.02;6.15;;;15.20;42.30;;;;;;5057211;28;20025;-53
2021/11/23 00:59:36;;;;;;;11.95;6.05;;;15.20;42.30;;;;;;5057931;28;20071;-53
2021/11/23 01:02:03;;;;;;;10.73;6.38;;;15.20;42.40;;;;;;5056826;28;20026;-52
2021/11/23 01:04:29;;;;;;;9.45;6.15;;;15.20;42.30;;;;;;5035459;28;20049;-55
2021/11/23 01:06:55;;;;;;;12.50;6.20;;;15.20;42.40;;;;;;5039352;28;20068;-52
2021/11/23 01:09:22;;;;;;;8.32;5.90;;;15.20;42.40;;;;;;5036597;28;20071;-53
2021/11/23 01:11:49;;;;;;;8.77;5.65;;;15.20;42.40;;;;;;5036526;28;20025;-53
2021/11/23 01:14:15;;;;;;;13.15;6.25;;;15.20;42.40;;;;;;5035245;28;20017;-53
2021/11/23 01:16:44;;;;;;;10.77;6.25;;;15.20;42.40;;;;;;5034113;28;20017;-54
2021/11/23 01:19:11;;;;;;;11.60;6.32;;;15.10;42.30;;;;;;5033405;28;20103;-53
2021/11/23 01:21:36;;;;;;;9.80;5.90;;;15.10;42.90;;;;;;5035080;28;20014;-51
2021/11/23 01:24:02;;;;;;;9.48;5.20;;;15.10;42.30;;;;;;5033978;28;20046;-54
2021/11/23 01:26:28;;;;;;;10.93;5.60;;;15.10;42.40;;;;;;5034078;28;20025;-52
2021/11/23 01:28:55;;;;;;;9.82;5.57;;;15.10;42.30;;;;;;5034109;28;20014;-55
2021/11/23 01:31:21;;;;;;;10.85;5.63;;;15.10;42.30;;;;;;5034352;28;20018;-54
2021/11/23 01:33:48;;;;;;;8.05;5.55;;;15.10;42.30;;;;;;5033382;28;20010;-51
2021/11/23 01:36:13;;;;;;;8.63;5.38;;;15.00;42.20;;;;;;5033177;28;20032;-54
2021/11/23 01:38:40;;;;;;;10.25;5.35;;;15.00;42.10;;;;;;5033649;28;20303;-51
2021/11/23 01:41:07;;;;;;;9.38;5.65;;;15.10;42.20;;;;;;5033271;28;20017;-52
2021/11/23 01:43:32;;;;;;;10.90;5.75;;;15.00;42.10;;;;;;5033291;28;20025;-52
2021/11/23 01:45:58;;;;;;;9.43;6.07;;;15.00;42.00;;;;;;5032086;28;20021;-51
2021/11/23 01:48:24;;;;;;;12.45;5.85;;;15.00;42.00;;;;;;5034157;28;20424;-52
2021/11/23 01:50:50;;;;;;;8.35;4.85;;;15.00;42.00;;;;;;5032356;28;20018;-49
2021/11/23 01:53:17;;;;;;;9.35;5.13;;;15.00;41.90;;;;;;5033687;28;20017;-51
2021/11/23 01:55:43;;;;;;;9.35;5.43;;;15.00;41.90;;;;;;5034419;28;20018;-53
2021/11/23 01:58:11;;;;;;;8.23;5.47;;;15.00;41.90;;;;;;5036370;28;20018;-52
2021/11/23 02:00:37;;;;;;;9.45;5.60;;;15.00;41.90;;;;;;5035622;28;20092;-51
2021/11/23 02:03:02;;;;;;;9.77;5.95;;;15.00;41.90;;;;;;5035103;28;20508;-51
2021/11/23 02:05:29;;;;;;;9.30;5.80;;;14.90;41.90;;;;;;5051219;28;20045;-50
2021/11/23 02:07:55;;;;;;;9.60;5.65;;;14.90;42.00;;;;;;5055906;28;20101;-52
2021/11/23 02:10:21;;;;;;;12.20;5.95;;;14.90;42.00;;;;;;5055281;28;20013;-49
2021/11/23 02:12:47;;;;;;;8.07;5.38;;;14.90;42.00;;;;;;5055155;28;20017;-52
2021/11/23 02:15:14;;;;;;;8.65;5.50;;;14.90;42.00;;;;;;5054031;28;20025;-55
2021/11/23 02:17:43;;;;;;;8.20;5.35;;;14.90;42.10;;;;;;5052824;28;20440;-49
2021/11/23 02:20:14;;;;;;;6.93;4.65;;;14.90;42.10;;;;;;5052776;28;20049;-53
2021/11/23 02:22:40;;;;;;;9.90;5.47;;;14.90;42.10;;;;;;5052853;28;20023;-52
2021/11/23 02:25:07;;;;;;;9.57;5.22;;;14.90;42.20;;;;;;5056775;28;20082;-51
2021/11/23 02:27:32;;;;;;;12.70;5.70;;;14.80;42.20;;;;;;5056525;28;20102;-50
2021/11/23 02:29:58;;;;;;;9.40;5.63;;;14.90;42.20;;;;;;5056177;28;20408;-50
2021/11/23 02:32:25;;;;;;;10.63;5.68;;;14.80;42.20;;;;;;5056600;28;20009;-50
2021/11/23 02:34:51;;;;;;;11.60;6.05;;;14.80;42.20;;;;;;5056347;28;20048;-52
2021/11/23 02:37:17;;;;;;;10.57;5.50;;;14.80;42.20;;;;;;5056244;28;20020;-53
2021/11/23 02:39:44;;;;;;;12.68;5.88;;;14.80;42.20;;;;;;5056507;28;20040;-54
2021/11/23 02:42:10;;;;;;;9.32;5.80;;;14.80;42.30;;;;;;5056416;28;20025;-51
2021/11/23 02:44:42;;;;;;;8.02;5.30;;;14.80;42.30;;;;;;5056344;28;20396;-52
2021/11/23 02:47:09;;;;;;;8.20;5.30;;;14.80;42.30;;;;;;5056903;28;20017;-53
2021/11/23 02:49:34;;;;;;;7.80;5.75;;;14.80;42.30;;;;;;5039719;28;20136;-54
2021/11/23 02:52:01;;;;;;;8.15;6.32;;;14.80;42.30;;;;;;5056712;28;20021;-53
2021/11/23 02:54:27;;;;;;;9.32;5.63;;;14.80;42.30;;;;;;5056469;28;20373;-54
2021/11/23 02:56:53;;;;;;;10.60;5.97;;;14.80;42.30;;;;;;5056849;28;20114;-57
2021/11/23 02:59:19;;;;;;;9.23;5.75;;;14.80;42.30;;;;;;5056784;28;20017;-57
2021/11/23 03:01:46;;;;;;;12.43;5.70;;;14.80;42.30;;;;;;5056544;28;20381;-58
2021/11/23 03:04:16;;;;;;;9.55;5.88;;;14.80;42.30;;;;;;5056277;28;20121;-58
2021/11/23 03:06:43;;;;;;;11.85;5.85;;;14.70;42.20;;;;;;5056439;28;20021;-58
2021/11/23 03:09:09;;;;;;;7.68;5.80;;;14.70;42.20;;;;;;5055728;28;20092;-58
2021/11/23 03:11:35;;;;;;;9.30;6.00;;;14.70;42.20;;;;;;5055729;28;20120;-57
2021/11/23 03:14:01;;;;;;;10.30;6.20;;;14.70;42.20;;;;;;5055982;28;20063;-57
2021/11/23 03:16:28;;;;;;;11.88;6.20;;;14.70;42.20;;;;;;5056025;28;20043;-57
2021/11/23 03:18:53;;;;;;;8.23;5.72;;;14.70;42.20;;;;;;5055151;28;20420;-57
2021/11/23 03:21:19;;;;;;;10.25;6.20;;;14.70;42.20;;;;;;5055628;28;20100;-57
2021/11/23 03:23:45;;;;;;;11.30;6.07;;;14.70;42.20;;;;;;5021192;28;20039;-58
2021/11/23 03:26:11;;;;;;;9.75;6.15;;;14.70;42.10;;;;;;5038000;28;20028;-58
2021/11/23 03:28:37;;;;;;;12.18;6.10;;;14.70;42.10;;;;;;5055706;28;20362;-55
2021/11/23 03:31:03;;;;;;;8.90;5.63;;;14.70;42.10;;;;;;5037736;28;20024;-57
2021/11/23 03:33:29;;;;;;;6.75;4.88;;;14.70;42.10;;;;;;5055931;28;20019;-56
2021/11/23 03:35:56;;;;;;;8.80;6.20;;;14.70;42.10;;;;;;5055505;28;20025;-58
2021/11/23 03:38:24;;;;;;;12.77;6.43;;;14.70;42.00;;;;;;5056107;28;20017;-59
2021/11/23 03:40:49;;;;;;;10.20;5.72;;;14.80;42.00;;;;;;5056656;28;20025;-59
2021/11/23 03:43:15;;;;;;;9.60;5.68;;;14.80;41.90;;;;;;5039740;28;20473;-59
2021/11/23 03:45:41;;;;;;;8.68;6.30;;;14.90;41.90;;;;;;5057250;28;20047;-59
2021/11/23 03:48:07;;;;;;;8.98;5.38;;;14.90;41.70;;;;;;5038653;28;20051;-58
2021/11/23 03:50:33;;;;;;;7.43;5.57;;;15.00;41.60;;;;;;5056147;28;20017;-59
2021/11/23 03:53:00;;;;;;;12.00;5.47;;;15.00;41.50;;;;;;5056045;28;20025;-59
2021/11/23 03:55:26;;;;;;;10.15;5.60;;;15.00;41.40;;;;;;5038436;28;20021;-59
2021/11/23 03:57:52;;;;;;;9.40;5.68;;;15.10;41.30;;;;;;5056033;28;20021;-58
2021/11/23 04:00:20;;;;;;;8.75;5.32;;;15.10;41.30;;;;;;5037566;28;20043;-58
2021/11/23 04:02:47;;;;;;;10.50;6.30;;;15.20;41.30;;;;;;5055829;28;20017;-59
2021/11/23 04:05:13;;;;;;;8.52;6.03;;;15.20;41.20;;;;;;5054975;28;20520;-58
2021/11/23 04:07:40;;;;;;;8.35;5.78;;;15.30;41.10;;;;;;5055538;28;20015;-58
2021/11/23 04:10:07;;;;;;;9.07;6.03;;;15.30;41.00;;;;;;5055477;28;20023;-58
2021/11/23 04:12:33;;;;;;;7.57;5.35;;;15.40;40.80;;;;;;5055043;28;20021;-58
2021/11/23 04:14:59;;;;;;;7.10;5.10;;;15.40;40.70;;;;;;5038513;28;20071;-58
2021/11/23 04:17:25;;;;;;;10.88;5.90;;;15.50;40.60;;;;;;5058211;28;20067;-58
2021/11/23 04:19:52;;;;;;;7.32;5.30;;;15.50;40.50;;;;;;5040680;28;20025;-58
2021/11/23 04:22:18;;;;;;;12.30;6.05;;;15.50;40.40;;;;;;5057843;28;20052;-58
2021/11/23 04:24:44;;;;;;;7.35;5.30;;;15.60;40.50;;;;;;5040652;28;20025;-59
2021/11/23 04:27:10;;;;;;;9.88;5.97;;;15.60;40.40;;;;;;5040995;28;20032;-58
2021/11/23 04:29:37;;;;;;;10.40;6.38;;;15.60;40.30;;;;;;5040118;28;20020;-58
2021/11/23 04:32:04;;;;;;;9.07;5.93;;;15.70;40.30;;;;;;5024392;28;20013;-58
2021/11/23 04:34:30;;;;;;;9.93;6.25;;;15.70;40.10;;;;;;5041174;28;20017;-58
2021/11/23 04:36:57;;;;;;;12.60;6.85;;;15.70;40.10;;;;;;5039150;28;20074;-58
2021/11/23 04:39:23;;;;;;;10.98;6.13;;;15.80;40.00;;;;;;5057385;28;20025;-58
2021/11/23 04:41:50;;;;;;;9.00;5.88;;;15.80;39.90;;;;;;5056358;28;20546;-58
2021/11/23 04:44:16;;;;;;;10.07;5.90;;;15.80;39.80;;;;;;5055803;28;20092;-58
2021/11/23 04:46:42;;;;;;;10.40;6.07;;;15.90;39.70;;;;;;5055689;28;20482;-58
2021/11/23 04:49:08;;;;;;;8.60;6.00;;;15.90;39.70;;;;;;5037965;28;20017;-58
2021/11/23 04:51:35;;;;;;;9.27;6.32;;;16.00;39.70;;;;;;5037245;28;20024;-58
2021/11/23 04:54:01;;;;;;;10.50;6.15;;;16.00;39.60;;;;;;5037647;28;20009;-58
2021/11/23 04:56:27;;;;;;;10.15;6.20;;;16.00;39.50;;;;;;5055452;28;20025;-57
2021/11/23 04:58:54;;;;;;;9.60;5.97;;;16.00;39.50;;;;;;5021340;28;20017;-57
2021/11/23 05:01:20;;;;;;;8.63;5.57;;;16.10;39.40;;;;;;5038157;28;20020;-58
2021/11/23 05:03:46;;;;;;;10.18;6.50;;;16.20;39.40;;;;;;5055707;28;20047;-57
2021/11/23 05:06:12;;;;;;;8.40;5.82;;;16.20;39.30;;;;;;5039291;28;20029;-58
2021/11/23 05:08:38;;;;;;;8.80;6.25;;;16.20;39.20;;;;;;5056509;28;20085;-57
2021/11/23 05:11:04;;;;;;;12.75;6.32;;;16.20;39.20;;;;;;5055548;28;20025;-58
2021/11/23 05:13:30;;;;;;;9.35;5.82;;;16.20;39.20;;;;;;5055760;28;20465;-57
2021/11/23 05:15:56;;;;;;;12.75;6.25;;;16.30;39.10;;;;;;5055173;28;20117;-58
2021/11/23 05:18:23;;;;;;;12.80;6.32;;;16.30;39.10;;;;;;5055272;28;20059;-56
2021/11/23 05:20:49;;;;;;;9.88;6.20;;;16.30;39.10;;;;;;5055325;28;20016;-57
2021/11/23 05:23:15;;;;;;;11.57;6.53;;;16.40;39.10;;;;;;5055964;28;20017;-58
2021/11/23 05:25:42;;;;;;;10.68;6.32;;;16.40;39.00;;;;;;5055791;28;20080;-58
2021/11/23 05:28:09;;;;;;;8.75;6.38;;;16.40;39.00;;;;;;5054846;28;20024;-57
2021/11/23 05:30:35;;;;;;;12.30;6.47;;;16.40;38.90;;;;;;5056150;28;20092;-57
2021/11/23 05:33:01;;;;;;;9.13;5.75;;;16.40;38.90;;;;;;5020352;28;20548;-57
2021/11/23 05:35:27;;;;;;;8.75;6.10;;;16.40;38.90;;;;;;5036128;28;20029;-56
2021/11/23 05:37:53;;;;;;;9.50;6.25;;;16.50;38.90;;;;;;5036667;28;20389;-58
2021/11/23 05:40:18;;;;;;;10.02;5.90;;;16.50;38.80;;;;;;5039020;28;20021;-57
2021/11/23 05:42:45;;;;;;;9.80;6.32;;;16.50;38.70;;;;;;5036799;28;20388;-57
2021/11/23 05:45:13;;;;;;;13.10;6.40;;;16.60;38.70;;;;;;5055517;28;20029;-56
2021/11/23 05:47:39;;;;;;;10.13;6.35;;;16.60;38.70;;;;;;5023479;28;20500;-57
2021/11/23 05:50:05;;;;;;;10.68;6.00;;;16.60;38.70;;;;;;5054916;28;20088;-58
2021/11/23 05:52:31;;;;;;;11.52;5.90;;;16.70;38.70;;;;;;5055653;28;20017;-57
2021/11/23 05:54:57;;;;;;;11.10;5.80;;;16.60;38.70;;;;;;5039331;28;20029;-57
2021/11/23 05:57:23;;;;;;;13.48;6.72;;;16.70;38.70;;;;;;5037160;28;20066;-57
2021/11/23 05:59:49;;;;;;;8.45;5.75;;;16.70;38.70;;;;;;5057822;28;20459;-58
2021/11/23 06:02:15;;;;;;;9.90;5.45;;;16.70;38.60;;;;;;5040752;28;20389;-58
2021/11/23 06:04:42;;;;;;;9.30;5.90;;;16.80;38.70;;;;;;5057846;28;20053;-58
2021/11/23 06:07:07;;;;;;;13.35;6.38;;;16.80;38.70;;;;;;5058587;28;20013;-57
2021/11/23 06:09:33;;;;;;;9.93;5.90;;;16.80;38.60;;;;;;5040375;28;20469;-55
2021/11/23 06:12:00;;;;;;;9.25;5.75;;;16.80;38.70;;;;;;5057587;28;20039;-58
2021/11/23 06:14:26;;;;;;;10.30;5.70;;;16.80;38.70;;;;;;5057635;28;20032;-56
2021/11/23 06:16:53;;;;;;;11.85;6.10;;;16.80;38.70;;;;;;5056937;28;20021;-56
2021/11/23 06:19:19;;;;;;;9.35;5.75;;;16.90;38.70;;;;;;5056690;28;20036;-58
2021/11/23 06:21:45;;;;;;;8.75;5.57;;;16.90;38.70;;;;;;5057623;28;20013;-58
2021/11/23 06:24:10;;;;;;;10.35;5.93;;;16.90;38.70;;;;;;5039599;28;20025;-56
2021/11/23 06:26:36;;;;;;;10.07;5.70;;;16.90;38.70;;;;;;5057283;28;20358;-55
2021/11/23 06:29:03;;;;;;;9.20;5.63;;;16.90;38.70;;;;;;5057447;28;20033;-56
2021/11/23 06:31:29;;;;;;;10.52;6.38;;;17.00;38.70;;;;;;5057208;28;20473;-57
2021/11/23 06:33:55;;;;;;;7.78;5.78;;;16.90;38.70;;;;;;5039836;28;20067;-56
2021/11/23 06:36:21;;;;;;;10.43;5.60;;;16.90;38.70;;;;;;5057082;28;20032;-57
2021/11/23 06:38:50;;;;;;;9.52;5.45;;;17.00;38.70;;;;;;5056845;28;20088;-56
2021/11/23 06:41:16;;;;;;;9.45;5.53;;;17.00;38.70;;;;;;5056583;28;20044;-57
2021/11/23 06:43:43;;;;;;;10.90;6.10;;;17.00;38.70;;;;;;5056862;28;20071;-57
2021/11/23 06:46:08;;;;;;;10.63;5.43;;;17.00;38.70;;;;;;5057254;28;20029;-57
2021/11/23 06:48:35;;;;;;;9.15;5.70;;;17.00;38.80;;;;;;5057706;28;20482;-55
2021/11/23 06:51:01;;;;;;;10.23;5.53;;;17.00;38.70;;;;;;5039986;28;20024;-56
2021/11/23 06:53:26;;;;;;;6.43;5.20;;;17.00;38.80;;;;;;5056979;28;20083;-56
2021/11/23 06:55:53;;;;;;;9.40;5.55;;;17.00;38.80;;;;;;5056739;28;20033;-57
2021/11/23 06:58:21;;;;;;;10.73;5.47;;;17.00;38.70;;;;;;5038080;28;20047;-57
2021/11/23 07:00:47;;;;;;;9.07;5.45;;;17.10;38.80;;;;;;5021092;28;20481;-57
2021/11/23 07:03:12;;;;;;;9.85;5.20;;;17.00;38.80;;;;;;5054794;28;20025;-57
2021/11/23 07:05:39;;;;;;;9.25;5.30;;;17.10;38.80;;;;;;5054354;28;20041;-57
2021/11/23 07:08:05;;;;;;;8.88;4.63;;;17.10;38.80;;;;;;5054619;28;20037;-57
2021/11/23 07:10:31;;;;;;;7.65;4.90;;;17.10;38.70;;;;;;5053215;28;20009;-58
2021/11/23 07:12:59;;;;;;;9.10;5.13;;;17.10;38.70;;;;;;5054380;28;20017;-58
2021/11/23 07:15:25;;;;;;;12.23;5.60;;;17.10;38.80;;;;;;5054755;28;20107;-57
2021/11/23 07:17:52;;;;;;;10.18;5.35;;;17.10;38.80;;;;;;5036893;28;20071;-61
2021/11/23 07:20:20;;;;;;;10.85;5.45;;;17.10;38.70;;;;;;5019465;28;20040;-55
2021/11/23 07:22:47;;;;;;;11.95;5.10;;;17.10;38.70;;;;;;5019041;28;20017;-56
2021/11/23 07:25:12;;;;;;;9.38;4.90;;;17.20;38.70;;;;;;5053377;28;20025;-57
2021/11/23 07:27:42;;;;;;;9.15;5.78;;;17.20;38.70;;;;;;5054305;28;20023;-56
2021/11/23 07:30:09;;;;;;;10.32;5.22;;;17.20;38.60;;;;;;5035742;28;20013;-56
2021/11/23 07:32:35;;;;;;;15.93;5.22;;;17.20;38.60;;;;;;5053794;28;20041;-56
2021/11/23 07:35:03;;;;;;;9.73;5.45;;;17.20;38.60;;;;;;5035562;28;20036;-57
2021/11/23 07:37:31;;;;;;;7.57;5.15;;;17.20;38.70;;;;;;5054492;28;20464;-56
2021/11/23 07:39:57;;;;;;;9.55;5.05;;;17.20;38.70;;;;;;5055159;28;20017;-58
2021/11/23 07:42:23;;;;;;;10.30;5.20;;;17.20;38.70;;;;;;5054478;28;20017;-56
2021/11/23 07:44:50;;;;;;;7.78;5.40;;;17.20;38.60;;;;;;5053865;28;20024;-56
2021/11/23 07:47:15;;;;;;;10.60;5.15;;;17.20;38.70;;;;;;5019106;28;20055;-56
2021/11/23 07:49:42;;;;;;;11.85;5.25;;;17.20;38.70;;;;;;5053422;28;20330;-58
2021/11/23 07:52:08;;;;;;;9.25;4.97;;;17.20;38.70;;;;;;5053259;28;20079;-57
2021/11/23 07:54:34;;;;;;;9.85;5.32;;;17.20;38.70;;;;;;5053886;28;20087;-57
2021/11/23 07:57:00;;;;;;;9.07;5.30;;;17.20;38.70;;;;;;5035335;28;20431;-58
2021/11/23 07:59:26;;;;;;;14.15;5.47;;;17.20;38.80;;;;;;5053580;28;20017;-55
2021/11/23 08:01:52;;;;;;;8.70;5.25;;;17.30;38.80;;;;;;5053432;28;20020;-57
2021/11/23 08:04:18;;;;;;;22.50;6.50;;;17.20;38.80;;;;;;5035029;28;20578;-57
2021/11/23 08:06:44;;;;;;;36.80;6.80;;;16.90;39.50;;;;;;5035237;28;20393;-57
2021/11/23 08:09:11;;;;;;;24.13;5.75;;;16.40;40.20;;;;;;5034847;28;20029;-58
2021/11/23 08:11:37;;;;;;;23.48;6.63;;;16.00;41.00;;;;;;5052868;28;20036;-57
2021/11/23 08:14:03;;;;;;;20.55;6.47;;;15.80;41.60;;;;;;5053247;28;20025;-59
2021/11/23 08:16:29;;;;;;;20.60;6.13;;;15.80;41.90;;;;;;5053767;28;20024;-57
2021/11/23 08:18:55;;;;;;;24.98;6.82;;;15.90;43.20;;;;;;5055684;28;20021;-58
2021/11/23 08:21:21;;;;;;;16.73;6.70;;;16.10;44.20;;;;;;5036373;28;20444;-57
2021/11/23 08:23:46;;;;;;;26.95;8.10;;;16.30;44.20;;;;;;5054622;28;20074;-57
2021/11/23 08:26:13;;;;;;;15.63;7.28;;;15.90;43.70;;;;;;5035864;28;20397;-57
2021/11/23 08:28:39;;;;;;;14.77;6.95;;;15.30;44.90;;;;;;5053811;28;20052;-58
2021/11/23 08:31:05;;;;;;;15.48;7.10;;;14.80;45.60;;;;;;5036301;28;20017;-58
2021/11/23 08:33:30;;;;;;;16.00;8.32;;;14.60;46.60;;;;;;5036325;28;20092;-54
2021/11/23 08:35:56;;;;;;;12.32;7.40;;;14.50;47.10;;;;;;5036600;28;20159;-58
2021/11/23 08:38:23;;;;;;;14.70;7.30;;;14.30;48.10;;;;;;5036008;28;20031;-56
2021/11/23 08:40:48;;;;;;;16.90;7.60;;;14.20;48.10;;;;;;5054211;28;20020;-58
2021/11/23 08:43:15;;;;;;;13.48;7.18;;;14.10;48.30;;;;;;5054741;28;20008;-58
2021/11/23 08:45:45;;;;;;;16.42;7.55;;;14.10;48.30;;;;;;5054461;28;20024;-57
2021/11/23 08:48:11;;;;;;;19.30;8.07;;;14.00;49.10;;;;;;5054544;28;20025;-58
2021/11/23 08:50:37;;;;;;;16.67;7.70;;;13.90;49.30;;;;;;5036707;28;20040;-58
2021/11/23 08:53:07;;;;;;;18.67;7.75;;;13.80;49.50;;;;;;5019685;28;20039;-59
2021/11/23 08:55:33;;;;;;;15.55;7.35;;;13.70;49.40;;;;;;5054411;28;20111;-58
2021/11/23 08:57:59;;;;;;;12.77;7.97;;;13.80;49.60;;;;;;5019777;28;20246;-57
2021/11/23 09:00:25;;;;;;;14.20;8.02;;;13.70;50.00;;;;;;5036563;28;20040;-58
2021/11/23 09:02:53;;;;;;;25.08;7.88;;;13.70;50.50;;;;;;5035965;28;20547;-56
2021/11/23 09:05:20;;;;;;;22.25;7.80;;;13.70;50.60;;;;;;5053722;28;20505;-55
2021/11/23 09:07:46;;;;;;;14.15;7.50;;;13.80;50.10;;;;;;5053483;28;20005;-51
2021/11/23 09:10:25;;;;;;;17.52;8.32;;;13.60;50.30;;;;;;5035412;28;20013;-54
2021/11/23 09:12:53;;;;;;;19.48;8.98;;;13.50;50.20;;;;;;5052646;28;20017;-53
2021/11/23 09:15:19;;;;;;;14.75;8.23;;;13.50;50.10;;;;;;5034019;28;20024;-57
2021/11/23 09:17:46;;;;;;;15.43;8.48;;;13.60;49.90;;;;;;5051587;28;20020;-58
2021/11/23 09:20:12;;;;;;;13.98;7.90;;;13.50;50.80;;;;;;5052524;28;20160;-56
2021/11/23 09:22:40;;;;;;;17.52;7.75;;;13.70;51.30;;;;;;5051916;28;20021;-61
2021/11/23 09:25:06;;;;;;;25.52;9.23;;;13.90;51.30;;;;;;5052243;28;20051;-58
2021/11/23 09:27:32;;;;;;;18.23;8.23;;;13.90;51.60;;;;;;5052919;28;20013;-58
2021/11/23 09:29:59;;;;;;;19.23;8.63;;;14.00;51.70;;;;;;5035008;28;20127;-58
2021/11/23 09:32:26;;;;;;;15.15;8.25;;;13.90;51.50;;;;;;5052038;28;20013;-59
2021/11/23 09:34:52;;;;;;;17.40;9.48;;;14.00;51.20;;;;;;5034217;28;20028;-56
2021/11/23 09:37:17;;;;;;;13.65;8.15;;;14.10;51.10;;;;;;5034613;28;20028;-58
2021/11/23 09:39:43;;;;;;;15.60;8.45;;;14.20;51.00;;;;;;5017987;28;20381;-58
2021/11/23 09:42:09;;;;;;;13.88;8.75;;;14.10;51.20;;;;;;5052715;28;20017;-57
2021/11/23 09:44:35;;;;;;;13.48;8.57;;;13.80;51.50;;;;;;5018805;28;20061;-59
2021/11/23 09:47:02;;;;;;;17.08;8.88;;;13.80;51.90;;;;;;5053209;28;20088;-58
2021/11/23 09:49:30;;;;;;;16.33;8.57;;;13.90;51.80;;;;;;5053462;28;20013;-56
2021/11/23 09:51:58;;;;;;;18.83;9.73;;;13.90;51.80;;;;;;5053211;28;20017;-57
2021/11/23 09:54:24;;;;;;;18.48;9.10;;;13.80;52.40;;;;;;5052775;28;20105;-57
2021/11/23 09:56:50;;;;;;;23.05;9.10;;;13.90;52.10;;;;;;5034715;28;20111;-55
2021/11/23 09:59:16;;;;;;;18.10;8.60;;;14.00;52.50;;;;;;5052313;28;20013;-57
2021/11/23 10:01:52;;;;;;;16.60;8.70;;;14.00;52.20;;;;;;5034612;28;20416;-55
2021/11/23 10:04:19;;;;;;;18.13;9.70;;;13.90;52.30;;;;;;5051979;28;20124;-58
2021/11/23 10:06:59;;;;;;;29.17;9.57;;;13.90;52.60;;;;;;5052028;28;20025;-58
2021/11/23 10:09:38;;;;;;;10.90;8.25;;;14.10;53.70;;;;;;5016874;28;20493;-58
2021/11/23 10:12:26;;;;;;;26.67;9.68;;;14.10;52.40;;;;;;5050508;28;20009;-55
2021/11/23 10:15:11;;;;;;;24.17;9.50;;;13.90;52.70;;;;;;5050750;28;20465;-54
2021/11/23 10:17:39;;;;;;;20.83;9.70;;;14.00;52.80;;;;;;5051103;28;20032;-57
2021/11/23 10:20:06;;;;;;;17.73;9.80;;;13.80;53.40;;;;;;5051196;28;20036;-57
2021/11/23 10:22:36;;;;;;;15.80;9.75;;;13.80;53.20;;;;;;5032854;28;20120;-60
2021/11/23 10:25:06;;;;;;;17.27;8.30;;;13.90;52.90;;;;;;5032989;28;20040;-62
2021/11/23 10:27:41;;;;;;;17.90;9.27;;;14.00;53.10;;;;;;5032447;28;20131;-56
2021/11/23 10:30:09;;;;;;;19.73;9.73;;;13.90;53.20;;;;;;5050326;28;20023;-57
2021/11/23 10:32:49;;;;;;;15.65;8.95;;;14.10;53.20;;;;;;5032682;28;20016;-57
2021/11/23 10:35:20;;;;;;;17.77;9.20;;;14.10;53.00;;;;;;5050095;28;20096;-57
2021/11/23 10:37:46;;;;;;;14.45;8.43;;;14.20;53.10;;;;;;5050527;28;20469;-56
2021/11/23 10:40:28;;;;;;;15.20;8.48;;;14.20;52.90;;;;;;5032354;28;20200;-56
2021/11/23 10:42:56;;;;;;;15.40;8.63;;;14.10;53.40;;;;;;5050137;28;20025;-57
2021/11/23 10:45:22;;;;;;;22.23;9.38;;;14.20;54.00;;;;;;5052588;28;20029;-58
2021/11/23 10:47:49;;;;;;;25.05;8.23;;;14.10;53.30;;;;;;5035136;28;20178;-58
2021/11/23 10:50:16;;;;;;;14.05;8.13;;;14.30;52.90;;;;;;5035635;28;20028;-60
2021/11/23 10:52:45;;;;;;;12.27;7.78;;;14.30;53.20;;;;;;5053632;28;20045;-59
2021/11/23 10:55:22;;;;;;;14.10;7.88;;;14.50;52.70;;;;;;5054120;28;20020;-57
2021/11/23 10:57:48;;;;;;;17.13;7.55;;;14.60;52.00;;;;;;5036615;28;20117;-59
2021/11/23 11:00:15;;;;;;;22.20;8.43;;;14.70;52.90;;;;;;5054780;28;20106;-59
2021/11/23 11:02:41;;;;;;;11.73;8.07;;;14.90;52.00;;;;;;5021226;28;20032;-59
2021/11/23 11:05:12;;;;;;;17.83;8.27;;;15.00;51.00;;;;;;5037070;28;20064;-58
2021/11/23 11:07:38;;;;;;;18.00;8.32;;;15.20;50.40;;;;;;5055111;28;20013;-58
2021/11/23 11:10:05;;;;;;;17.20;7.45;;;15.70;49.30;;;;;;5055390;28;20390;-59
2021/11/23 11:12:31;;;;;;;12.98;7.43;;;16.10;48.30;;;;;;5055259;28;20022;-59
2021/11/23 11:14:58;;;;;;;18.70;7.55;;;16.50;47.40;;;;;;5055715;28;20469;-58
2021/11/23 11:17:24;;;;;;;11.38;6.97;;;16.80;46.60;;;;;;5055188;28;20021;-59
2021/11/23 11:19:52;;;;;;;11.38;6.45;;;17.10;45.80;;;;;;5055520;28;20075;-57
2021/11/23 11:22:19;;;;;;;15.60;6.18;;;17.40;45.30;;;;;;5054947;28;20013;-57
2021/11/23 11:27:32;;;;;;;9.90;5.63;;;17.70;44.40;;;;;;5054924;28;20702;-58
2021/11/23 11:30:22;;;;;;;12.93;6.05;;;17.90;44.00;;;;;;5054499;28;20084;-58
2021/11/23 11:33:13;;;;;;;14.05;6.32;;;18.10;43.80;;;;;;5054980;28;20013;-57
2021/11/23 11:35:40;;;;;;;11.98;5.72;;;18.10;43.50;;;;;;5039757;28;20035;-58
2021/11/23 11:38:25;;;;;;;12.77;5.85;;;18.30;43.30;;;;;;5054712;28;20165;-58
2021/11/23 11:40:52;;;;;;;8.25;5.05;;;18.40;43.10;;;;;;5054511;28;20477;-57
2021/11/23 11:43:18;;;;;;;14.43;5.22;;;18.50;42.80;;;;;;5036487;28;20437;-58
2021/11/23 11:45:48;;;;;;;14.27;5.22;;;18.50;42.70;;;;;;5053391;28;20021;-55
2021/11/23 11:48:24;;;;;;;;;;;18.70;42.60;;;;;;5053920;28;20009;-51
2021/11/23 11:50:57;;;;;;;16.80;5.90;;;18.50;43.00;;;;;;5053450;28;19912;-52
2021/11/23 11:53:22;;;;;;;23.13;7.18;;;18.20;45.10;;;;;;5036485;28;20017;-54
2021/11/23 11:55:52;;;;;;;17.15;7.00;;;18.00;46.50;;;;;;5054063;28;20036;-51
2021/11/23 11:58:43;;;;;;;21.58;7.53;;;17.80;46.80;;;;;;5054144;28;20095;-53
2021/11/23 12:01:38;;;;;;;16.15;7.07;;;17.80;47.60;;;;;;5054294;28;20013;-55
2021/11/23 12:04:15;;;;;;;16.48;6.68;;;17.60;48.20;;;;;;4938298;29;20073;-55
2021/11/23 12:07:14;;;;;;;14.15;7.03;;;17.50;49.10;;;;;;4954241;29;20103;-55
2021/11/23 12:09:54;;;;;;;13.45;6.60;;;17.50;48.90;;;;;;4954109;29;20421;-58
2021/11/23 12:12:29;;;;;;;17.02;6.07;;;17.40;49.70;;;;;;4939127;29;20054;-54
2021/11/23 12:15:08;;;;;;;12.48;5.43;;;17.70;49.70;;;;;;4954362;29;20043;-54
2021/11/23 12:17:54;;;;;;;18.20;6.50;;;18.20;49.20;;;;;;4953124;29;20038;-53
2021/11/23 12:20:21;;;;;;;14.18;5.30;;;18.80;48.80;;;;;;4937359;29;20673;-56
2021/11/23 12:22:48;;;;;;;12.15;5.20;;;19.20;48.40;;;;;;4953445;29;20453;-54
2021/11/23 12:25:18;;;;;;;10.48;4.60;;;19.50;48.00;;;;;;4953428;29;20106;-53
2021/11/23 12:27:46;;;;;;;12.45;4.22;;;19.80;47.70;;;;;;4953823;29;20023;-54
2021/11/23 12:30:14;;;;;;;18.33;4.97;;;20.10;47.40;;;;;;4953893;29;20055;-54
2021/11/23 12:32:40;;;;;;;12.27;4.10;;;20.30;47.20;;;;;;4953175;29;20071;-53
2021/11/23 12:35:07;;;;;;;11.55;4.38;;;20.40;46.90;;;;;;4952492;29;20127;-54
2021/11/23 12:37:43;;;;;;;16.17;4.60;;;20.60;46.80;;;;;;4936327;29;20023;-53
2021/11/23 12:40:23;;;;;;;13.80;5.00;;;20.80;47.00;;;;;;4966456;28;20064;-52
2021/11/23 12:42:55;;;;;;;21.23;7.00;;;20.50;46.30;;;;;;5031376;28;20013;-51
2021/11/23 12:45:37;;;;;;;14.25;6.20;;;20.00;46.10;;;;;;5031345;28;20096;-48